Time;durP1;ratioP1;P1;durP2;ratioP2;P2;SDS_P1;SDS_P2;PMS_P1;PMS_P2;Temp;Humidity;BMP_temperature;BMP_pressure;BME280_temperature;BME280_humidity;BME280_pressure;Samples;Min_cycle;Max_cycle;Signal;HPM_P1;HPM_P2
2022/12/04 00:02:04;;;;;;;59.50;26.17;;;;;;;-142.25;100.00;58004.16;5009763;28;20046;-60
2022/12/04 00:04:29;;;;;;;53.73;25.73;;;;;;;-142.25;100.00;58004.16;5008310;28;20056;-61
2022/12/04 00:06:55;;;;;;;55.60;25.17;;;;;;;-142.25;100.00;58004.16;5010257;28;20401;-61
2022/12/04 00:09:22;;;;;;;55.80;27.07;;;;;;;-142.25;100.00;58004.16;5008287;28;20041;-61
2022/12/04 00:11:48;;;;;;;66.73;29.67;;;;;;;-142.25;100.00;58004.16;5008355;28;20068;-61
2022/12/04 00:14:13;;;;;;;64.57;29.30;;;;;;;-142.25;100.00;58004.16;5010493;28;20331;-62
2022/12/04 00:16:39;;;;;;;57.10;25.33;;;;;;;-142.25;100.00;58004.16;5008496;28;20132;-61
2022/12/04 00:19:05;;;;;;;68.43;28.10;;;;;;;-142.25;100.00;58004.16;5007606;28;20424;-62
2022/12/04 00:21:30;;;;;;;62.90;27.67;;;;;;;-142.25;100.00;58004.16;5025579;28;20096;-62
2022/12/04 00:23:56;;;;;;;70.30;28.77;;;;;;;-142.25;100.00;58004.16;5009438;28;20602;-61
2022/12/04 00:26:25;;;;;;;70.90;29.97;;;;;;;-142.25;100.00;58004.16;5026681;28;20072;-61
2022/12/04 00:28:51;;;;;;;68.60;31.27;;;;;;;-142.25;100.00;58004.16;5011854;28;20042;-61
2022/12/04 00:31:20;;;;;;;74.37;30.03;;;;;;;-142.25;100.00;58004.16;5010935;28;20073;-62
2022/12/04 00:33:47;;;;;;;64.97;28.83;;;;;;;-142.25;100.00;58004.16;5009428;28;20053;-62
2022/12/04 00:36:14;;;;;;;76.83;30.13;;;;;;;-142.25;100.00;58004.16;5010100;28;20052;-62
2022/12/04 00:38:41;;;;;;;70.13;29.97;;;;;;;-142.25;100.00;58004.16;5009589;28;20154;-62
2022/12/04 00:41:09;;;;;;;72.97;30.17;;;;;;;-142.25;100.00;58004.16;5009378;28;20045;-62
2022/12/04 00:43:34;;;;;;;70.73;29.73;;;;;;;-142.25;100.00;58004.16;5010418;28;20392;-61
2022/12/04 00:46:00;;;;;;;79.13;31.17;;;;;;;-142.25;100.00;58004.16;5009883;28;20029;-63
2022/12/04 00:48:26;;;;;;;74.50;28.90;;;;;;;-142.25;100.00;58004.16;5009737;28;20091;-62
2022/12/04 00:50:53;;;;;;;69.30;29.30;;;;;;;-142.25;100.00;58004.16;5023509;28;20050;-62
2022/12/04 00:53:19;;;;;;;71.87;30.47;;;;;;;-142.25;100.00;58004.16;5009309;28;20413;-62
2022/12/04 00:55:44;;;;;;;73.77;30.30;;;;;;;-142.25;100.00;58004.16;5008560;28;20228;-61
2022/12/04 00:58:10;;;;;;;74.27;28.90;;;;;;;-142.25;100.00;58004.16;5007930;28;20583;-61
2022/12/04 01:00:38;;;;;;;78.17;31.80;;;;;;;-142.25;100.00;58004.16;5009733;28;20053;-62
2022/12/04 01:03:04;;;;;;;71.60;27.97;;;;;;;-142.25;100.00;58004.16;5009078;28;20133;-62
2022/12/04 01:05:30;;;;;;;70.43;30.97;;;;;;;-142.25;100.00;58004.16;5009758;28;20060;-62
2022/12/04 01:08:00;;;;;;;75.47;31.93;;;;;;;-142.25;100.00;58004.16;5008554;28;20681;-61
2022/12/04 01:10:26;;;;;;;64.27;29.90;;;;;;;-142.25;100.00;58004.16;5011470;28;20070;-61
2022/12/04 01:12:54;;;;;;;77.07;32.00;;;;;;;-142.25;100.00;58004.16;5009393;28;20168;-60
2022/12/04 01:15:20;;;;;;;77.57;32.10;;;;;;;-142.25;100.00;58004.16;5013113;28;20088;-61
2022/12/04 01:17:45;;;;;;;80.70;30.73;;;;;;;-142.25;100.00;58004.16;5011970;28;20483;-61
2022/12/04 01:20:14;;;;;;;71.07;29.10;;;;;;;-142.25;100.00;58004.16;5014080;28;20042;-61
2022/12/04 01:22:40;;;;;;;63.20;26.80;;;;;;;-142.25;100.00;58004.16;5009072;28;20073;-61
2022/12/04 01:25:06;;;;;;;64.87;27.23;;;;;;;-142.25;100.00;58004.16;5011119;28;20053;-61
2022/12/04 01:27:32;;;;;;;66.80;27.83;;;;;;;-142.25;100.00;58004.16;5014207;28;20509;-62
2022/12/04 01:29:57;;;;;;;61.43;27.53;;;;;;;-142.25;100.00;58004.16;5011615;28;20049;-63
2022/12/04 01:32:23;;;;;;;61.73;28.00;;;;;;;-142.25;100.00;58004.16;5011867;28;20259;-62
2022/12/04 01:34:49;;;;;;;55.50;25.63;;;;;;;-142.25;100.00;58004.16;5023099;28;20410;-60
2022/12/04 01:37:14;;;;;;;59.57;27.53;;;;;;;-142.25;100.00;58004.16;5011736;28;20424;-61
2022/12/04 01:39:40;;;;;;;56.17;27.67;;;;;;;-142.25;100.00;58004.16;5028203;28;20111;-62
2022/12/04 01:42:08;;;;;;;54.83;27.47;;;;;;;-142.25;100.00;58004.16;5011812;28;20144;-63
2022/12/04 01:44:34;;;;;;;54.17;26.43;;;;;;;-142.25;100.00;58004.16;5012090;28;20065;-61
2022/12/04 01:47:00;;;;;;;56.50;27.40;;;;;;;-142.25;100.00;58004.16;5013324;28;20068;-62
2022/12/04 01:49:34;;;;;;;54.23;27.73;;;;;;;-142.25;100.00;58004.16;5014713;28;20602;-62
2022/12/04 01:52:05;;;;;;;56.97;26.93;;;;;;;-142.25;100.00;58004.16;5012490;28;20037;-62
2022/12/04 01:54:36;;;;;;;49.63;25.53;;;;;;;-142.25;100.00;58004.16;5015770;28;20144;-62
2022/12/04 01:57:24;;;;;;;52.73;27.27;;;;;;;-142.25;100.00;58004.16;5011603;28;20057;-62
2022/12/04 01:59:53;;;;;;;54.33;24.27;;;;;;;-142.25;100.00;58004.16;5010737;28;20038;-62
2022/12/04 02:02:31;;;;;;;55.33;25.73;;;;;;;-142.25;100.00;58004.16;5012123;28;20087;-60
2022/12/04 02:04:59;;;;;;;46.70;25.03;;;;;;;-142.25;100.00;58004.16;5011667;28;20144;-62
2022/12/04 02:07:26;;;;;;;46.10;25.80;;;;;;;-142.25;100.00;58004.16;5013011;28;20045;-61
2022/12/04 02:09:54;;;;;;;54.83;27.80;;;;;;;-142.25;100.00;58004.16;5011682;28;20026;-63
2022/12/04 02:12:55;;;;;;;48.67;24.60;;;;;;;-142.25;100.00;58004.16;5010211;28;20045;-62
2022/12/04 02:15:42;;;;;;;50.73;26.03;;;;;;;-142.25;100.00;58004.16;5012249;28;20042;-62
2022/12/04 02:18:39;;;;;;;50.33;26.30;;;;;;;-142.25;100.00;58004.16;5012402;28;20046;-61
2022/12/04 02:21:30;;;;;;;51.70;25.50;;;;;;;-142.25;100.00;58004.16;5012593;28;20069;-61
2022/12/04 02:24:46;;;;;;;50.40;26.07;;;;;;;-142.25;100.00;58004.16;4997906;28;20134;-62
2022/12/04 02:27:38;;;;;;;49.97;24.73;;;;;;;-142.25;100.00;58004.16;4977454;28;20528;-60
2022/12/04 02:30:12;;;;;;;50.13;26.77;;;;;;;-142.25;100.00;58004.16;5004436;28;20053;-60
2022/12/04 02:32:44;;;;;;;48.85;25.02;;;;;;;-142.25;100.00;58004.16;5011551;28;20050;-62
2022/12/04 02:35:25;;;;;;;50.57;25.03;;;;;;;-142.25;100.00;58004.16;5011090;28;20057;-62
2022/12/04 02:38:05;;;;;;;49.93;24.87;;;;;;;-142.25;100.00;58004.16;5020661;28;20054;-60
2022/12/04 02:40:37;;;;;;;46.13;26.10;;;;;;;-142.25;100.00;58004.16;5010224;28;20111;-61
2022/12/04 02:43:17;;;;;;;48.30;24.97;;;;;;;-142.25;100.00;58004.16;5012230;28;20034;-61
2022/12/04 02:45:47;;;;;;;54.20;26.10;;;;;;;-142.25;100.00;58004.16;5010743;28;20134;-61
2022/12/04 02:48:18;;;;;;;46.63;23.67;;;;;;;-142.25;100.00;58004.16;5011211;28;20144;-62
2022/12/04 02:50:47;;;;;;;48.33;25.90;;;;;;;-142.25;100.00;58004.16;5010931;28;20052;-61
2022/12/04 02:53:18;;;;;;;50.73;25.57;;;;;;;-142.25;100.00;58004.16;5009623;28;20726;-61
2022/12/04 02:55:50;;;;;;;46.30;24.57;;;;;;;-142.25;100.00;58004.16;5010740;28;20179;-63
2022/12/04 02:58:24;;;;;;;49.43;26.30;;;;;;;-142.25;100.00;58004.16;5010684;28;20152;-60
2022/12/04 03:00:52;;;;;;;49.77;24.30;;;;;;;-142.25;100.00;58004.16;5009519;28;20038;-59
2022/12/04 03:03:22;;;;;;;50.50;25.43;;;;;;;-142.25;100.00;58004.16;5009300;28;20045;-62
2022/12/04 03:05:59;;;;;;;54.77;27.87;;;;;;;-142.25;100.00;58004.16;5005316;28;20052;-60
2022/12/04 03:08:32;;;;;;;48.73;25.47;;;;;;;-142.25;100.00;58004.16;5004491;28;20041;-61
2022/12/04 03:11:01;;;;;;;47.73;25.00;;;;;;;-142.25;100.00;58004.16;5004102;28;20113;-59
2022/12/04 03:13:44;;;;;;;53.67;27.43;;;;;;;-142.25;100.00;58004.16;5010518;28;20048;-60
2022/12/04 03:16:19;;;;;;;45.43;23.90;;;;;;;-142.25;100.00;58004.16;5009725;28;20042;-61
2022/12/04 03:19:04;;;;;;;47.40;26.10;;;;;;;-142.25;100.00;58004.16;5008424;28;20038;-61
2022/12/04 03:21:36;;;;;;;49.33;27.20;;;;;;;-142.25;100.00;58004.16;5010457;28;20924;-62
2022/12/04 03:24:38;;;;;;;53.40;25.70;;;;;;;-142.25;100.00;58004.16;5010543;28;20037;-61
2022/12/04 03:27:27;;;;;;;56.27;26.13;;;;;;;-142.25;100.00;58004.16;5009082;28;20060;-62
2022/12/04 03:29:56;;;;;;;46.63;25.87;;;;;;;-142.25;100.00;58004.16;5029394;28;20069;-63
2022/12/04 03:32:27;;;;;;;45.23;24.60;;;;;;;-142.25;100.00;58004.16;5013508;28;20481;-61
2022/12/04 03:35:00;;;;;;;44.70;25.07;;;;;;;-142.25;100.00;58004.16;5013303;28;20050;-61
2022/12/04 03:37:38;;;;;;;43.03;24.93;;;;;;;-142.25;100.00;58004.16;5010557;28;20074;-62
2022/12/04 03:40:25;;;;;;;49.05;25.40;;;;;;;-142.25;100.00;58004.16;5010847;28;20049;-60
2022/12/04 03:43:03;;;;;;;44.70;22.37;;;;;;;-142.25;100.00;58004.16;5027303;28;20141;-61
2022/12/04 03:45:58;;;;;;;43.27;22.07;;;;;;;-142.25;100.00;58004.16;5011165;28;20095;-61
2022/12/04 03:48:46;;;;;;;40.40;22.42;;;;;;;-142.25;100.00;58004.16;5008674;28;20049;-61
2022/12/04 03:51:30;;;;;;;46.63;23.03;;;;;;;-142.25;100.00;58004.16;5012544;28;20033;-62
2022/12/04 03:54:20;;;;;;;41.87;21.23;;;;;;;-142.25;100.00;58004.16;5010524;28;20033;-61
2022/12/04 03:56:54;;;;;;;42.33;21.97;;;;;;;-142.25;100.00;58004.16;5009795;28;20092;-61
2022/12/04 03:59:27;;;;;;;34.90;20.92;;;;;;;-142.25;100.00;58004.16;5012623;28;20050;-61
2022/12/04 04:01:56;;;;;;;38.37;21.23;;;;;;;-142.25;100.00;58004.16;5010779;28;20544;-61
2022/12/04 04:04:29;;;;;;;31.77;18.43;;;;;;;-142.25;100.00;58004.16;5011968;28;20469;-61
2022/12/04 04:07:01;;;;;;;30.17;19.13;;;;;;;-142.25;100.00;58004.16;5011961;28;20075;-60
2022/12/04 04:09:33;;;;;;;27.87;18.53;;;;;;;-142.25;100.00;58004.16;5011246;28;20080;-62
2022/12/04 04:12:06;;;;;;;29.50;17.67;;;;;;;-142.25;100.00;58004.16;5011245;28;20038;-62
2022/12/04 04:26:16;;;;;;;33.53;19.57;;;;;;;-142.25;100.00;58004.16;5010976;28;20046;-61
2022/12/04 04:28:42;;;;;;;33.77;20.03;;;;;;;-142.25;100.00;58004.16;5011517;28;20567;-62
2022/12/04 04:31:30;;;;;;;33.63;19.90;;;;;;;-142.25;100.00;58004.16;5011342;28;20066;-61
2022/12/04 04:34:27;;;;;;;32.30;19.10;;;;;;;-142.25;100.00;58004.16;5008812;28;20041;-61
2022/12/04 04:37:12;;;;;;;36.07;20.47;;;;;;;-142.25;100.00;58004.16;5010675;28;20146;-62
2022/12/04 04:40:08;;;;;;;41.35;22.88;;;;;;;-142.25;100.00;58004.16;5010819;28;20502;-61
2022/12/04 04:42:49;;;;;;;40.47;22.27;;;;;;;-142.25;100.00;58004.16;5008538;28;20057;-62
2022/12/04 04:45:19;;;;;;;36.57;22.00;;;;;;;-142.25;100.00;58004.16;5009899;28;20052;-60
2022/12/04 04:47:54;;;;;;;39.03;22.03;;;;;;;-142.25;100.00;58004.16;5009430;28;20053;-61
2022/12/04 04:50:20;;;;;;;41.78;22.50;;;;;;;-142.25;100.00;58004.16;5024398;28;20041;-61
2022/12/04 04:52:52;;;;;;;37.07;22.23;;;;;;;-142.25;100.00;58004.16;5007460;28;20053;-60
2022/12/04 04:55:19;;;;;;;35.93;22.13;;;;;;;-142.25;100.00;58004.16;5010354;28;20172;-61
2022/12/04 04:57:44;;;;;;;36.73;23.00;;;;;;;-142.25;100.00;58004.16;5008334;28;20053;-60
2022/12/04 05:00:16;;;;;;;36.83;21.80;;;;;;;-142.25;100.00;58004.16;5008947;28;20416;-61
2022/12/04 05:02:42;;;;;;;42.93;24.67;;;;;;;-142.25;100.00;58004.16;5011145;28;20042;-60
2022/12/04 05:05:08;;;;;;;41.40;25.17;;;;;;;-142.25;100.00;58004.16;5025552;28;20542;-61
2022/12/04 05:07:34;;;;;;;43.67;24.00;;;;;;;-142.25;100.00;58004.16;5010298;28;20060;-61
2022/12/04 05:10:00;;;;;;;45.50;26.40;;;;;;;-142.25;100.00;58004.16;5007291;28;20053;-61
2022/12/04 05:12:27;;;;;;;43.80;25.43;;;;;;;-142.25;100.00;58004.16;5010384;28;20041;-61
2022/12/04 05:14:52;;;;;;;42.60;25.77;;;;;;;-142.25;100.00;58004.16;5006402;28;20544;-61
2022/12/04 05:17:18;;;;;;;52.87;27.13;;;;;;;-142.25;100.00;58004.16;5010375;28;20038;-61
2022/12/04 05:19:53;;;;;;;42.17;24.57;;;;;;;-142.25;100.00;58004.16;5010374;28;20052;-62
2022/12/04 05:22:31;;;;;;;43.13;24.30;;;;;;;-142.25;100.00;58004.16;5011206;28;20152;-61
2022/12/04 05:24:57;;;;;;;46.17;24.93;;;;;;;-142.25;100.00;58004.16;5009126;28;20053;-61
2022/12/04 05:27:24;;;;;;;48.27;27.03;;;;;;;-142.25;100.00;58004.16;5010137;28;20060;-62
2022/12/04 05:29:52;;;;;;;55.97;28.63;;;;;;;-142.25;100.00;58004.16;5008545;28;20042;-61
2022/12/04 05:32:19;;;;;;;52.63;27.20;;;;;;;-142.25;100.00;58004.16;5010139;28;20156;-61
2022/12/04 05:34:49;;;;;;;49.00;27.53;;;;;;;-142.25;100.00;58004.16;5010748;28;20061;-61
2022/12/04 05:37:16;;;;;;;47.70;26.57;;;;;;;-142.25;100.00;58004.16;5011392;28;20899;-62
2022/12/04 05:39:41;;;;;;;49.40;26.13;;;;;;;-142.25;100.00;58004.16;5008531;28;20034;-62
2022/12/04 05:42:07;;;;;;;55.33;28.13;;;;;;;-142.25;100.00;58004.16;5010410;28;20045;-60
2022/12/04 05:44:33;;;;;;;53.50;28.43;;;;;;;-142.25;100.00;58004.16;5010841;28;20559;-61
2022/12/04 05:46:59;;;;;;;59.57;29.87;;;;;;;-142.25;100.00;58004.16;5010585;28;20051;-60
2022/12/04 05:49:28;;;;;;;58.23;32.53;;;;;;;-142.25;100.00;58004.16;5008526;28;20048;-60
2022/12/04 05:51:53;;;;;;;57.73;32.00;;;;;;;-142.25;100.00;58004.16;5009848;28;20034;-62
2022/12/04 05:54:20;;;;;;;64.20;33.93;;;;;;;-142.25;100.00;58004.16;5011652;28;20045;-62
2022/12/04 05:56:46;;;;;;;70.23;36.80;;;;;;;-142.25;100.00;58004.16;5014287;28;20048;-62
2022/12/04 05:59:13;;;;;;;68.17;38.10;;;;;;;-142.25;100.00;58004.16;5011387;28;20069;-63
2022/12/04 06:01:38;;;;;;;72.87;38.97;;;;;;;-142.25;100.00;58004.16;5012388;28;20048;-62
2022/12/04 06:04:04;;;;;;;81.20;44.10;;;;;;;-142.25;100.00;58004.16;5013340;28;20124;-60
2022/12/04 06:06:30;;;;;;;71.33;40.93;;;;;;;-142.25;100.00;58004.16;5013886;28;20176;-61
2022/12/04 06:08:58;;;;;;;71.43;37.90;;;;;;;-142.25;100.00;58004.16;5012639;28;20083;-62
2022/12/04 06:11:29;;;;;;;79.57;40.47;;;;;;;-142.25;100.00;58004.16;5014250;28;20054;-62
2022/12/04 06:13:56;;;;;;;72.00;38.20;;;;;;;-142.25;100.00;58004.16;5012063;28;20049;-62
2022/12/04 06:16:24;;;;;;;76.77;40.03;;;;;;;-142.25;100.00;58004.16;5028902;28;20021;-62
2022/12/04 06:18:56;;;;;;;80.93;40.77;;;;;;;-142.25;100.00;58004.16;5009266;28;20137;-62
2022/12/04 06:21:24;;;;;;;75.43;40.13;;;;;;;-142.25;100.00;58004.16;5008008;28;20152;-60
2022/12/04 06:23:50;;;;;;;78.07;42.50;;;;;;;-142.25;100.00;58004.16;5005891;28;20320;-62
2022/12/04 06:26:17;;;;;;;81.30;42.50;;;;;;;-142.25;100.00;58004.16;5011444;28;20088;-60
2022/12/04 06:28:43;;;;;;;86.73;44.50;;;;;;;-142.25;100.00;58004.16;5012000;28;20034;-61
2022/12/04 06:31:11;;;;;;;81.80;40.30;;;;;;;-142.25;100.00;58004.16;5012968;28;20088;-66
2022/12/04 06:33:37;;;;;;;82.70;42.80;;;;;;;-142.25;100.00;58004.16;5011156;28;20039;-62
2022/12/04 06:36:10;;;;;;;81.57;42.37;;;;;;;-142.25;100.00;58004.16;5013755;28;20042;-62
2022/12/04 06:38:36;;;;;;;81.93;41.70;;;;;;;-142.25;100.00;58004.16;5011490;28;20037;-62
2022/12/04 06:41:06;;;;;;;79.73;43.40;;;;;;;-142.25;100.00;58004.16;5010870;28;20030;-64
2022/12/04 06:43:32;;;;;;;79.30;45.47;;;;;;;-142.25;100.00;58004.16;5010749;28;20069;-62
2022/12/04 06:46:00;;;;;;;89.90;46.50;;;;;;;-142.25;100.00;58004.16;5011635;28;20108;-62
2022/12/04 06:48:28;;;;;;;87.00;45.30;;;;;;;-142.25;100.00;58004.16;5006371;28;20086;-60
2022/12/04 06:51:04;;;;;;;84.10;44.10;;;;;;;-142.25;100.00;58004.16;5011720;28;20053;-62
2022/12/04 06:53:31;;;;;;;84.63;44.60;;;;;;;-142.25;100.00;58004.16;5027969;28;20080;-61
2022/12/04 06:56:02;;;;;;;84.47;42.53;;;;;;;-142.25;100.00;58004.16;5010584;28;20041;-61
2022/12/04 06:58:29;;;;;;;83.13;43.40;;;;;;;-142.25;100.00;58004.16;5011144;28;20069;-60
2022/12/04 07:00:55;;;;;;;81.73;41.87;;;;;;;-142.25;100.00;58004.16;5009914;28;20077;-61
2022/12/04 07:03:22;;;;;;;76.20;42.37;;;;;;;-142.25;100.00;58004.16;5013215;28;20092;-61
2022/12/04 07:05:48;;;;;;;83.63;42.83;;;;;;;-142.25;100.00;58004.16;5010712;28;20151;-62
2022/12/04 07:08:14;;;;;;;84.83;40.13;;;;;;;-142.25;100.00;58004.16;5005130;28;20050;-62
2022/12/04 07:10:41;;;;;;;80.10;40.43;;;;;;;-142.25;100.00;58004.16;5028451;28;20049;-62
2022/12/04 07:13:07;;;;;;;83.57;40.23;;;;;;;-142.25;100.00;58004.16;5008477;28;20030;-62
2022/12/04 07:15:34;;;;;;;92.03;41.67;;;;;;;-142.25;100.00;58004.16;5004669;28;20123;-62
2022/12/04 07:18:01;;;;;;;85.70;39.57;;;;;;;-142.25;100.00;58004.16;5009467;28;20057;-62
2022/12/04 07:20:26;;;;;;;80.27;39.77;;;;;;;-142.25;100.00;58004.16;5010390;28;20041;-61
2022/12/04 07:22:52;;;;;;;85.27;37.53;;;;;;;-142.25;100.00;58004.16;5011319;28;20030;-63
2022/12/04 07:25:18;;;;;;;78.90;37.57;;;;;;;-142.25;100.00;58004.16;5027061;28;20162;-62
2022/12/04 07:27:44;;;;;;;80.33;38.63;;;;;;;-142.25;100.00;58004.16;5012648;28;20365;-61
2022/12/04 07:30:10;;;;;;;75.47;38.83;;;;;;;-142.25;100.00;58004.16;5013686;28;20030;-61
2022/12/04 07:32:36;;;;;;;80.17;37.43;;;;;;;-142.25;100.00;58004.16;5010530;28;20615;-62
2022/12/04 07:35:03;;;;;;;91.57;39.20;;;;;;;-142.25;100.00;58004.16;5004616;28;20344;-60
2022/12/04 07:37:29;;;;;;;84.10;40.57;;;;;;;-142.25;100.00;58004.16;5009339;28;20060;-61
2022/12/04 07:39:54;;;;;;;93.50;40.70;;;;;;;-142.25;100.00;58004.16;5008313;28;20516;-61
2022/12/04 07:42:20;;;;;;;97.43;40.80;;;;;;;-142.25;100.00;58004.16;5006363;28;20296;-61
2022/12/04 07:44:46;;;;;;;83.50;37.10;;;;;;;-142.25;100.00;58004.16;5005288;28;20096;-60
2022/12/04 07:47:12;;;;;;;86.60;39.00;;;;;;;-142.25;100.00;58004.16;5005998;28;20466;-60
2022/12/04 07:49:38;;;;;;;80.57;38.17;;;;;;;-142.25;100.00;58004.16;5024350;28;20033;-60
2022/12/04 07:52:04;;;;;;;86.17;38.97;;;;;;;-142.25;100.00;58004.16;5012154;28;20056;-62
2022/12/04 07:54:30;;;;;;;85.67;38.53;;;;;;;-142.25;100.00;58004.16;5005000;28;20484;-61
2022/12/04 07:56:56;;;;;;;92.43;40.17;;;;;;;-142.25;100.00;58004.16;5007800;28;20564;-62
2022/12/04 07:59:22;;;;;;;78.63;36.97;;;;;;;-142.25;100.00;58004.16;5010534;28;20128;-61
2022/12/04 08:01:48;;;;;;;87.47;39.47;;;;;;;-142.25;100.00;58004.16;5008606;28;20042;-61
2022/12/04 08:04:13;;;;;;;93.47;42.20;;;;;;;-142.25;100.00;58004.16;5009669;28;20050;-61
2022/12/04 08:06:39;;;;;;;90.03;39.73;;;;;;;-142.25;100.00;58004.16;5008193;28;20052;-60
2022/12/04 08:09:06;;;;;;;96.97;38.60;;;;;;;-142.25;100.00;58004.16;5004861;28;20064;-61
2022/12/04 08:11:32;;;;;;;100.13;41.20;;;;;;;-142.25;100.00;58004.16;5010357;28;20038;-61
2022/12/04 08:14:00;;;;;;;92.70;37.73;;;;;;;-142.25;100.00;58004.16;5005017;28;20045;-62
2022/12/04 08:16:28;;;;;;;95.37;37.73;;;;;;;-142.25;100.00;58004.16;5009469;28;20473;-61
2022/12/04 08:18:55;;;;;;;101.63;38.70;;;;;;;-142.25;100.00;58004.16;5002215;28;20037;-61
2022/12/04 08:21:23;;;;;;;94.47;35.87;;;;;;;-142.25;100.00;58004.16;5008738;28;20461;-61
2022/12/04 08:23:51;;;;;;;106.90;39.53;;;;;;;-142.25;100.00;58004.16;5003791;28;20107;-60
2022/12/04 08:26:19;;;;;;;98.93;39.70;;;;;;;-142.25;100.00;58004.16;5008204;28;20045;-61
2022/12/04 08:28:45;;;;;;;107.30;40.20;;;;;;;-142.25;100.00;58004.16;5009474;28;20050;-61
2022/12/04 08:31:17;;;;;;;100.93;41.27;;;;;;;-142.25;100.00;58004.16;5009037;28;20060;-61
2022/12/04 08:33:44;;;;;;;88.03;39.73;;;;;;;-142.25;100.00;58004.16;5009660;28;20088;-61
2022/12/04 08:36:13;;;;;;;103.03;41.53;;;;;;;-142.25;100.00;58004.16;5011302;28;20045;-59
2022/12/04 08:38:40;;;;;;;96.00;41.03;;;;;;;-142.25;100.00;58004.16;5008156;28;20077;-63
2022/12/04 08:41:10;;;;;;;88.70;39.00;;;;;;;-142.25;100.00;58004.16;5008290;28;20197;-61
2022/12/04 08:43:37;;;;;;;86.37;37.10;;;;;;;-142.25;100.00;58004.16;5010198;28;20052;-61
2022/12/04 08:46:05;;;;;;;103.47;38.53;;;;;;;-142.25;100.00;58004.16;5008540;28;20322;-61
2022/12/04 08:48:32;;;;;;;93.70;38.73;;;;;;;-142.25;100.00;58004.16;5010605;28;20054;-60
2022/12/04 08:50:58;;;;;;;89.57;39.70;;;;;;;-142.25;100.00;58004.16;5001417;28;20507;-65
2022/12/04 08:53:24;;;;;;;91.80;38.67;;;;;;;-142.25;100.00;58004.16;5008806;28;20446;-62
2022/12/04 08:55:51;;;;;;;91.63;39.33;;;;;;;-142.25;100.00;58004.16;5016873;28;20077;-62
2022/12/04 08:58:18;;;;;;;99.30;40.57;;;;;;;-142.25;100.00;58004.16;5002410;28;20168;-63
2022/12/04 09:00:44;;;;;;;96.27;37.07;;;;;;;-142.25;100.00;58004.16;5019157;28;20085;-61
2022/12/04 09:03:13;;;;;;;79.00;34.83;;;;;;;-142.25;100.00;58004.16;5004328;28;20045;-61
2022/12/04 09:05:40;;;;;;;79.07;34.80;;;;;;;-142.25;100.00;58004.16;5008874;28;20504;-61
2022/12/04 09:08:06;;;;;;;63.53;30.40;;;;;;;-142.25;100.00;58004.16;5002959;28;20060;-62
2022/12/04 09:10:35;;;;;;;72.90;34.57;;;;;;;-142.25;100.00;58004.16;5009842;28;20065;-61
2022/12/04 09:13:01;;;;;;;78.53;32.93;;;;;;;-142.25;100.00;58004.16;5008223;28;20060;-61
2022/12/04 09:15:29;;;;;;;62.43;31.30;;;;;;;-142.25;100.00;58004.16;5010329;28;20127;-60
2022/12/04 09:17:55;;;;;;;61.20;32.07;;;;;;;-142.25;100.00;58004.16;5009540;28;20363;-66
2022/12/04 09:20:21;;;;;;;63.10;30.87;;;;;;;-142.25;100.00;58004.16;5009422;28;20110;-63
2022/12/04 09:22:50;;;;;;;73.90;33.67;;;;;;;-142.25;100.00;58004.16;5020076;28;20045;-63
2022/12/04 09:25:19;;;;;;;59.90;31.70;;;;;;;-142.25;100.00;58004.16;4991836;28;20092;-66
2022/12/04 09:27:45;;;;;;;68.83;31.37;;;;;;;-142.25;100.00;58004.16;4986268;28;20038;-64
2022/12/04 09:30:12;;;;;;;56.33;31.57;;;;;;;-142.25;100.00;58004.16;5010606;28;20080;-62
2022/12/04 09:32:39;;;;;;;56.23;30.83;;;;;;;-142.25;100.00;58004.16;5022883;28;20073;-63
2022/12/04 09:35:06;;;;;;;57.73;28.80;;;;;;;-142.25;100.00;58004.16;5011463;28;20167;-65
2022/12/04 09:37:35;;;;;;;58.80;29.10;;;;;;;-142.25;100.00;58004.16;5014590;28;20041;-64
2022/12/04 09:40:06;;;;;;;60.80;29.40;;;;;;;-142.25;100.00;58004.16;4989526;28;20053;-65
2022/12/04 09:42:39;;;;;;;54.23;28.53;;;;;;;-142.25;100.00;58004.16;5013608;28;20046;-60
2022/12/04 09:45:17;;;;;;;55.93;26.90;;;;;;;-142.25;100.00;58004.16;5014823;28;20060;-62
2022/12/04 09:47:46;;;;;;;46.63;26.63;;;;;;;-142.25;100.00;58004.16;5013304;28;20048;-61
2022/12/04 09:50:38;;;;;;;46.13;24.63;;;;;;;-142.25;100.00;58004.16;5018289;28;20584;-62
2022/12/04 09:53:18;;;;;;;52.40;27.40;;;;;;;-142.25;100.00;58004.16;5018190;28;20054;-61
2022/12/04 09:56:00;;;;;;;48.37;25.67;;;;;;;-142.25;100.00;58004.16;5009277;28;20100;-62
2022/12/04 09:58:44;;;;;;;43.43;24.23;;;;;;;-142.25;100.00;58004.16;5010910;28;20139;-62
2022/12/04 10:01:22;;;;;;;58.40;24.90;;;;;;;-142.25;100.00;58004.16;5011284;28;20152;-60
2022/12/04 10:03:49;;;;;;;53.20;23.90;;;;;;;-142.25;100.00;58004.16;5010937;28;20034;-61
2022/12/04 10:06:32;;;;;;;48.97;23.87;;;;;;;-142.25;100.00;58004.16;5008823;28;20037;-60
2022/12/04 10:09:19;;;;;;;57.67;23.40;;;;;;;-142.25;100.00;58004.16;5005962;28;20048;-61
2022/12/04 10:11:49;;;;;;;55.85;28.50;;;;;;;-142.25;100.00;58004.16;5002987;28;20037;-60
2022/12/04 10:14:49;;;;;;;63.23;25.03;;;;;;;-142.25;100.00;58004.16;5007093;28;20057;-60
2022/12/04 10:17:53;;;;;;;56.27;24.60;;;;;;;-142.25;100.00;58004.16;5003813;28;20986;-60
2022/12/04 10:20:31;;;;;;;51.03;23.47;;;;;;;-142.25;100.00;58004.16;5000810;28;20811;-61
2022/12/04 10:23:17;;;;;;;55.40;25.30;;;;;;;-142.25;100.00;58004.16;5003892;28;20516;-61
2022/12/04 10:25:44;;;;;;;50.93;22.93;;;;;;;-142.25;100.00;58004.16;5006811;28;20060;-60
2022/12/04 10:28:33;;;;;;;45.00;22.57;;;;;;;-142.25;100.00;58004.16;5010408;28;20072;-61
2022/12/04 10:31:02;;;;;;;60.13;25.17;;;;;;;-142.25;100.00;58004.16;5010207;28;20045;-59
2022/12/04 10:33:47;;;;;;;55.53;24.70;;;;;;;-142.25;100.00;58004.16;5011781;28;20168;-60
2022/12/04 10:36:19;;;;;;;48.22;22.40;;;;;;;-142.25;100.00;58004.16;5012436;28;20044;-59
2022/12/04 10:38:51;;;;;;;58.17;24.57;;;;;;;-142.25;100.00;58004.16;5010765;28;20134;-60
2022/12/04 10:41:46;;;;;;;55.87;24.23;;;;;;;-142.25;100.00;58004.16;5013980;28;20092;-59
2022/12/04 10:44:18;;;;;;;54.40;25.67;;;;;;;-142.25;100.00;58004.16;5013048;28;20057;-59
2022/12/04 10:46:44;;;;;;;56.43;25.80;;;;;;;-142.25;100.00;58004.16;5011359;28;20049;-60
2022/12/04 10:49:23;;;;;;;51.63;25.33;;;;;;;-142.25;100.00;58004.16;5011784;28;20512;-60
2022/12/04 10:51:49;;;;;;;53.13;25.17;;;;;;;-142.25;100.00;58004.16;5012895;28;20045;-61
2022/12/04 10:54:22;;;;;;;55.87;26.13;;;;;;;-142.25;100.00;58004.16;5009918;28;20099;-60
2022/12/04 10:56:52;;;;;;;60.23;24.07;;;;;;;-142.25;100.00;58004.16;5025885;28;20092;-61
2022/12/04 10:59:18;;;;;;;53.33;24.93;;;;;;;-142.25;100.00;58004.16;5010923;28;20042;-59
2022/12/04 11:01:44;;;;;;;53.20;25.07;;;;;;;-142.25;100.00;58004.16;5012190;28;20641;-61
2022/12/04 11:04:20;;;;;;;53.03;25.77;;;;;;;-142.25;100.00;58004.16;5012879;28;20057;-60
2022/12/04 11:06:48;;;;;;;57.67;26.13;;;;;;;-142.25;100.00;58004.16;5011971;28;20045;-61
2022/12/04 11:09:40;;;;;;;60.83;26.63;;;;;;;-142.25;100.00;58004.16;4985662;28;20065;-59
2022/12/04 11:12:16;;;;;;;52.53;23.37;;;;;;;-142.25;100.00;58004.16;5010714;28;20046;-59
2022/12/04 11:14:41;;;;;;;62.33;25.73;;;;;;;-142.25;100.00;58004.16;5011615;28;20452;-59
2022/12/04 11:17:16;;;;;;;56.13;23.70;;;;;;;-142.25;100.00;58004.16;5010991;28;20056;-60
2022/12/04 11:19:42;;;;;;;57.97;26.05;;;;;;;-142.25;100.00;58004.16;5011389;28;20038;-60
2022/12/04 11:22:15;;;;;;;64.00;24.47;;;;;;;-142.25;100.00;58004.16;5011463;28;20053;-59
2022/12/04 11:24:42;;;;;;;84.27;25.77;;;;;;;-142.25;100.00;58004.16;5026257;28;20148;-59